Time;durP1;ratioP1;P1;durP2;ratioP2;P2;SDS_P1;SDS_P2;PMS_P1;PMS_P2;Temp;Humidity;BMP_temperature;BMP_pressure;BME280_temperature;BME280_humidity;BME280_pressure;Samples;Min_cycle;Max_cycle;Signal;HPM_P1;HPM_P2
2021/07/16 00:00:48;;;;;;;8.30;5.90;;;;;;;25.42;52.42;94603.13;5094367;28;20435;-85
2021/07/16 00:03:15;;;;;;;6.97;6.27;;;;;;;25.47;53.03;94603.31;5095054;28;20437;-85
2021/07/16 00:05:42;;;;;;;8.27;6.00;;;;;;;25.42;52.12;94606.66;5094261;28;21025;-85
2021/07/16 00:08:09;;;;;;;9.87;5.23;;;;;;;25.46;50.98;94607.84;5059642;28;20451;-86
2021/07/16 00:10:37;;;;;;;7.40;4.60;;;;;;;25.21;51.27;94604.47;5094747;28;20477;-87
2021/07/16 00:13:06;;;;;;;6.10;5.50;;;;;;;25.05;51.32;94605.91;5097253;28;20857;-86
2021/07/16 00:15:36;;;;;;;17.10;5.30;;;;;;;25.13;50.57;94591.34;5095943;28;20538;-86
2021/07/16 00:18:05;;;;;;;9.80;4.47;;;;;;;25.25;50.23;94581.50;5096521;28;20438;-85
2021/07/16 00:20:32;;;;;;;5.67;4.70;;;;;;;25.35;49.99;94580.94;5095405;28;20428;-85
2021/07/16 00:22:59;;;;;;;8.83;4.70;;;;;;;25.41;50.27;94571.94;5094934;28;20439;-87
2021/07/16 00:25:26;;;;;;;6.87;4.87;;;;;;;25.50;49.47;94559.84;5094754;28;20448;-85
2021/07/16 00:27:54;;;;;;;6.30;4.60;;;;;;;25.53;49.21;94565.56;5094348;28;20903;-85
2021/07/16 00:30:21;;;;;;;7.20;4.70;;;;;;;25.54;49.11;94553.78;5096177;28;20511;-85
2021/07/16 00:32:48;;;;;;;9.67;4.93;;;;;;;25.47;49.15;94552.25;5095003;28;21080;-85
2021/07/16 00:35:15;;;;;;;7.30;4.30;;;;;;;25.49;49.56;94558.22;5095629;28;20435;-85
2021/07/16 00:37:42;;;;;;;5.77;5.27;;;;;;;25.52;49.15;94555.88;5094820;28;20970;-84
2021/07/16 00:40:12;;;;;;;6.37;4.33;;;;;;;25.38;49.30;94556.28;5094911;28;20530;-85
2021/07/16 00:42:39;;;;;;;7.83;4.23;;;;;;;25.35;49.12;94546.00;5094482;28;20526;-85
2021/07/16 00:45:10;;;;;;;8.90;4.30;;;;;;;25.36;49.18;94547.66;5094102;28;20447;-85
2021/07/16 00:47:38;;;;;;;14.10;4.33;;;;;;;25.46;48.47;94548.75;5098570;28;20510;-85
2021/07/16 00:50:07;;;;;;;7.03;4.43;;;;;;;25.53;48.37;94549.44;5097242;28;20529;-85
2021/07/16 00:52:34;;;;;;;7.40;4.90;;;;;;;25.51;48.08;94553.41;5076947;28;20474;-86
2021/07/16 00:55:01;;;;;;;8.10;4.40;;;;;;;25.54;47.85;94563.72;5095575;28;20453;-86
2021/07/16 00:57:28;;;;;;;4.97;4.47;;;;;;;25.62;47.93;94560.69;5093681;28;20514;-85
2021/07/16 00:59:55;;;;;;;5.00;4.03;;;;;;;25.68;47.63;94567.03;5093805;28;20438;-86
2021/07/16 01:02:24;;;;;;;4.60;4.00;;;;;;;25.67;47.74;94560.81;5093572;28;20436;-85
2021/07/16 01:04:51;;;;;;;9.10;4.60;;;;;;;25.69;47.24;94553.34;5093835;28;20435;-86
2021/07/16 01:07:18;;;;;;;6.30;4.80;;;;;;;25.65;47.89;94560.22;5094254;28;20514;-85
2021/07/16 01:09:50;;;;;;;4.83;4.17;;;;;;;25.67;47.92;94547.38;5093860;28;20570;-86
2021/07/16 01:12:17;;;;;;;5.93;3.80;;;;;;;25.60;48.25;94546.66;5094100;28;20483;-86
2021/07/16 01:14:45;;;;;;;5.23;4.20;;;;;;;25.55;48.22;94544.66;5093842;28;20535;-85
2021/07/16 01:17:13;;;;;;;6.73;5.43;;;;;;;25.57;48.47;94560.56;5094023;28;20447;-85
2021/07/16 01:19:59;;;;;;;6.20;5.53;;;;;;;25.61;48.51;94553.66;5093338;28;20511;-86
2021/07/16 01:22:29;;;;;;;8.10;5.40;;;;;;;25.64;48.69;94555.88;5093322;28;20441;-85
2021/07/16 01:24:59;;;;;;;5.50;4.90;;;;;;;25.64;49.05;94555.88;5093258;28;20914;-85
2021/07/16 01:27:27;;;;;;;5.70;4.87;;;;;;;25.67;48.87;94565.38;5093341;28;20440;-85
2021/07/16 01:29:54;;;;;;;7.60;5.27;;;;;;;25.63;48.78;94565.81;5093100;28;20453;-84
2021/07/16 01:32:21;;;;;;;5.43;4.50;;;;;;;25.61;49.13;94557.16;5096168;28;20978;-85
2021/07/16 01:34:49;;;;;;;8.47;4.73;;;;;;;25.58;48.97;94554.13;5097676;28;20515;-85
2021/07/16 01:37:16;;;;;;;4.53;4.13;;;;;;;25.59;49.07;94555.75;5097578;28;20514;-85
2021/07/16 01:39:43;;;;;;;5.50;4.80;;;;;;;25.49;49.32;94548.28;5097288;28;20784;-85
2021/07/16 01:42:13;;;;;;;4.90;4.10;;;;;;;25.44;49.42;94544.63;5097164;28;20462;-85
2021/07/16 01:44:42;;;;;;;5.13;4.63;;;;;;;25.31;49.47;94541.09;5097318;28;20798;-85
2021/07/16 01:47:10;;;;;;;4.17;3.70;;;;;;;25.24;49.97;94536.88;5097388;28;20439;-86
2021/07/16 01:49:37;;;;;;;4.93;4.53;;;;;;;25.11;50.20;94531.69;5097258;28;20786;-85
2021/07/16 01:55:26;;;;;;;6.10;4.60;;;;;;;24.88;51.06;94532.41;5096991;28;20966;-86
2021/07/16 01:57:56;;;;;;;4.83;4.40;;;;;;;24.79;51.02;94531.06;5097204;28;20431;-85
2021/07/16 02:00:25;;;;;;;8.93;4.50;;;;;;;24.68;51.21;94535.34;5062054;28;20437;-85
2021/07/16 02:02:55;;;;;;;11.23;4.53;;;;;;;24.65;51.28;94533.09;5096647;28;20433;-85
2021/07/16 02:05:23;;;;;;;5.10;4.60;;;;;;;24.55;51.72;94524.75;5094999;28;20479;-85
2021/07/16 02:07:51;;;;;;;4.90;4.23;;;;;;;24.51;51.37;94537.78;5097486;28;20501;-85
2021/07/16 02:10:19;;;;;;;5.57;4.60;;;;;;;24.49;51.67;94531.03;5097325;28;20568;-84
2021/07/16 02:12:46;;;;;;;6.50;3.90;;;;;;;24.52;51.90;94530.56;5096495;28;20477;-85
2021/07/16 02:15:18;;;;;;;5.13;4.60;;;;;;;24.52;51.86;94536.75;5096830;28;20426;-85
2021/07/16 02:17:45;;;;;;;7.00;3.63;;;;;;;24.54;50.84;94529.28;5096593;28;20434;-85
2021/07/16 02:23:33;;;;;;;6.07;4.20;;;;;;;24.54;50.88;94526.63;5096319;28;20757;-84
2021/07/16 02:26:00;;;;;;;14.77;4.57;;;;;;;24.53;50.76;94527.66;5096232;28;20533;-85
2021/07/16 02:28:29;;;;;;;4.53;3.90;;;;;;;24.56;50.92;94519.16;5096589;28;20516;-85
2021/07/16 02:30:58;;;;;;;4.07;3.67;;;;;;;24.59;50.73;94517.91;5097268;28;20421;-85
2021/07/16 02:33:25;;;;;;;5.03;4.13;;;;;;;24.61;51.10;94513.13;5096466;28;20468;-84
2021/07/16 02:35:52;;;;;;;4.50;4.10;;;;;;;24.50;50.42;94517.38;5096031;28;20518;-85
2021/07/16 02:38:22;;;;;;;6.00;4.20;;;;;;;24.51;50.94;94518.19;5096150;28;20556;-84
2021/07/16 02:40:49;;;;;;;7.03;4.87;;;;;;;24.45;51.58;94509.19;5095980;28;20450;-85
2021/07/16 02:43:16;;;;;;;13.13;6.30;;;;;;;24.13;52.17;94515.72;5095975;28;20451;-85
2021/07/16 02:45:44;;;;;;;12.37;6.30;;;;;;;23.69;53.19;94518.41;5095882;28;20800;-85
2021/07/16 02:48:13;;;;;;;9.70;5.60;;;;;;;23.75;53.13;94514.03;5094435;28;20520;-85
2021/07/16 02:50:44;;;;;;;21.03;6.20;;;;;;;23.91;53.08;94513.47;5095787;28;20430;-84
2021/07/16 02:53:12;;;;;;;11.37;5.20;;;;;;;24.02;52.37;94518.09;5096031;28;20646;-84
2021/07/16 02:55:40;;;;;;;8.03;5.40;;;;;;;24.09;52.73;94524.22;5095733;28;20798;-85
2021/07/16 02:58:07;;;;;;;7.80;5.13;;;;;;;24.07;53.02;94525.47;5095969;28;20436;-85
2021/07/16 03:00:35;;;;;;;7.17;4.97;;;;;;;24.13;52.66;94523.75;5096300;28;20433;-85
2021/07/16 03:03:03;;;;;;;4.97;4.50;;;;;;;24.19;52.49;94526.38;5095781;28;20453;-84
2021/07/16 03:05:34;;;;;;;5.47;4.43;;;;;;;24.24;52.79;94513.09;5095795;28;20454;-85
2021/07/16 03:08:03;;;;;;;9.80;4.60;;;;;;;24.27;52.32;94522.56;5095483;28;20486;-85
2021/07/16 03:10:32;;;;;;;4.90;4.50;;;;;;;24.30;53.12;94524.88;5093633;28;20844;-85
2021/07/16 03:13:00;;;;;;;6.10;4.50;;;;;;;24.36;53.02;94532.00;5095736;28;20472;-86
2021/07/16 03:15:28;;;;;;;5.10;4.70;;;;;;;24.38;53.00;94524.56;5096021;28;20856;-86
2021/07/16 03:17:55;;;;;;;7.17;4.47;;;;;;;24.45;52.51;94536.03;5095816;28;20434;-84
2021/07/16 03:23:45;;;;;;;6.40;4.67;;;;;;;24.45;52.62;94536.03;5095142;28;20783;-86
2021/07/16 03:26:12;;;;;;;9.20;4.77;;;;;;;24.37;53.77;94544.38;5095564;28;20431;-86
2021/07/16 03:28:39;;;;;;;6.97;5.00;;;;;;;24.30;53.94;94535.59;5060120;28;20450;-86
2021/07/16 03:31:06;;;;;;;7.40;5.47;;;;;;;24.27;53.16;94544.03;5095503;28;20454;-86
2021/07/16 03:33:33;;;;;;;5.87;5.20;;;;;;;24.28;53.33;94537.66;5095530;28;20478;-86
2021/07/16 03:36:00;;;;;;;7.17;4.50;;;;;;;24.35;55.12;94549.97;5059955;28;20456;-86
2021/07/16 03:38:28;;;;;;;5.33;4.80;;;;;;;24.40;54.21;94549.28;5095089;28;20439;-87
2021/07/16 03:40:58;;;;;;;5.50;4.80;;;;;;;24.49;53.12;94549.78;5095086;28;20447;-86
2021/07/16 03:43:25;;;;;;;10.00;5.73;;;;;;;24.45;54.25;94541.38;5095256;28;20434;-86
2021/07/16 03:45:53;;;;;;;20.40;6.13;;;;;;;24.45;56.18;94545.94;5095068;28;20521;-86
2021/07/16 03:48:20;;;;;;;8.10;5.60;;;;;;;24.38;56.64;94541.47;5094959;28;20434;-86
2021/07/16 03:50:48;;;;;;;6.47;5.90;;;;;;;24.23;56.94;94546.34;5095145;28;20777;-87
2021/07/16 03:53:15;;;;;;;14.53;5.70;;;;;;;24.14;56.74;94538.81;5093933;28;20828;-87
2021/07/16 03:55:42;;;;;;;7.53;5.80;;;;;;;24.27;57.73;94544.03;5095094;28;20445;-85
2021/07/16 03:58:10;;;;;;;7.40;6.40;;;;;;;24.39;57.70;94547.66;5095015;28;20444;-87
2021/07/16 04:00:37;;;;;;;6.33;5.10;;;;;;;24.43;56.69;94550.69;5059656;28;20528;-86
2021/07/16 04:03:06;;;;;;;7.60;6.40;;;;;;;24.48;56.64;94538.25;5095011;28;20525;-87
2021/07/16 04:05:34;;;;;;;8.67;6.07;;;;;;;24.67;56.96;94547.94;5094810;28;20451;-84
2021/07/16 04:08:04;;;;;;;18.13;6.87;;;;;;;24.89;57.45;94542.09;5094925;28;20463;-87
2021/07/16 04:10:32;;;;;;;10.17;6.70;;;;;;;25.15;57.92;94547.09;5094879;28;20490;-77
2021/07/16 04:13:02;;;;;;;10.43;6.53;;;;;;;25.42;54.77;94536.78;5094595;28;20470;-85
2021/07/16 04:15:30;;;;;;;9.50;6.33;;;;;;;25.62;54.46;94540.00;5094180;28;20438;-84
2021/07/16 04:17:59;;;;;;;9.20;6.00;;;;;;;25.81;54.02;94534.56;5093762;28;20791;-85
2021/07/16 04:20:27;;;;;;;6.70;5.40;;;;;;;26.01;52.96;94536.88;5042403;28;20459;-85
2021/07/16 04:22:54;;;;;;;10.37;5.67;;;;;;;26.16;53.66;94539.94;5042564;28;20941;-86
2021/07/16 04:25:21;;;;;;;6.87;6.17;;;;;;;26.37;51.49;94534.00;5094480;28;20439;-86
2021/07/16 04:27:50;;;;;;;10.03;5.30;;;;;;;26.63;52.88;94539.91;5094504;28;20446;-86
2021/07/16 04:30:23;;;;;;;13.63;6.47;;;;;;;26.83;51.90;94543.00;5094557;28;20446;-86
2021/07/16 04:32:53;;;;;;;11.90;5.27;;;;;;;27.01;50.42;94544.75;5094926;28;20562;-86
2021/07/16 04:35:21;;;;;;;7.20;5.90;;;;;;;27.24;50.87;94547.34;5093906;28;20434;-85
2021/07/16 04:37:48;;;;;;;14.23;5.67;;;;;;;27.39;48.62;94546.78;5093955;28;20436;-83
2021/07/16 04:43:36;;;;;;;8.70;5.20;;;;;;;27.80;47.76;94547.53;5093799;28;20449;-85
2021/07/16 04:46:03;;;;;;;5.27;4.87;;;;;;;28.01;47.44;94549.47;5093623;28;20446;-83
2021/07/16 04:48:31;;;;;;;5.70;5.20;;;;;;;28.16;47.75;94547.00;5093703;28;20428;-83
2021/07/16 04:50:58;;;;;;;9.00;5.40;;;;;;;28.34;46.97;94543.25;5094026;28;20438;-84
2021/07/16 04:53:25;;;;;;;7.93;6.30;;;;;;;28.28;48.36;94553.13;5042205;28;20972;-86
2021/07/16 04:55:52;;;;;;;13.63;5.80;;;;;;;27.79;50.15;94543.19;5094249;28;20451;-87
2021/07/16 04:58:19;;;;;;;23.37;6.77;;;;;;;27.64;50.16;94551.84;5094069;28;20438;-85
2021/07/16 05:00:46;;;;;;;7.50;5.80;;;;;;;27.62;50.17;94551.25;5093932;28;20798;-86
2021/07/16 05:03:13;;;;;;;13.43;6.37;;;;;;;27.60;49.72;94547.97;5058777;28;20432;-88
2021/07/16 05:05:44;;;;;;;14.13;5.97;;;;;;;27.45;49.50;94540.41;5095312;28;20498;-85
2021/07/16 05:08:11;;;;;;;13.60;6.97;;;;;;;27.55;48.73;94540.59;5094360;28;20841;-87
2021/07/16 05:10:38;;;;;;;11.33;6.00;;;;;;;27.59;48.48;94539.06;5094233;28;20505;-87
2021/07/16 05:13:20;;;;;;;7.47;6.33;;;;;;;27.74;48.18;94550.13;5094557;28;20478;-87
2021/07/16 05:15:47;;;;;;;12.93;6.07;;;;;;;28.14;49.33;94543.75;5093367;28;20800;-86
2021/07/16 05:18:14;;;;;;;9.70;5.77;;;;;;;28.49;46.82;94539.94;5093686;28;20923;-86
2021/07/16 05:20:42;;;;;;;9.07;6.20;;;;;;;29.12;47.15;94538.56;5093822;28;20454;-85
2021/07/16 05:23:09;;;;;;;15.60;6.20;;;;;;;29.57;45.58;94535.56;5093815;28;20433;-85
2021/07/16 05:25:36;;;;;;;7.77;5.27;;;;;;;29.97;45.50;94529.66;5093813;28;20490;-88
2021/07/16 05:28:03;;;;;;;11.00;6.83;;;;;;;30.40;45.33;94527.81;5093532;28;20437;-87
2021/07/16 05:57:37;;;;;;;9.90;6.60;;;;;;;32.37;39.71;94518.50;5092818;28;20396;-84
2021/07/16 06:00:06;;;;;;;7.40;6.60;;;;;;;32.23;41.54;94520.97;5093564;28;20454;-86
2021/07/16 06:02:33;;;;;;;8.13;5.37;;;;;;;31.99;39.52;94522.63;5092884;28;20444;-84
2021/07/16 06:05:00;;;;;;;11.93;6.17;;;;;;;31.58;39.36;94533.44;5093347;28;20495;-86
2021/07/16 06:07:27;;;;;;;9.03;4.83;;;;;;;31.69;38.99;94528.81;5094075;28;20473;-85
2021/07/16 06:09:53;;;;;;;12.17;5.57;;;;;;;31.58;40.19;94538.06;5057079;28;21769;-85
2021/07/16 06:19:05;;;;;;;11.10;5.10;;;;;;;30.60;42.79;94517.09;5095943;28;20465;-85
2021/07/16 06:21:32;;;;;;;7.50;4.80;;;;;;;30.86;42.47;94514.50;5060239;28;20444;-86
2021/07/16 06:23:59;;;;;;;10.40;4.63;;;;;;;31.09;42.53;94511.34;5096372;28;20429;-86
2021/07/16 06:26:26;;;;;;;6.17;5.57;;;;;;;31.49;42.50;94512.53;5097646;28;20618;-85
2021/07/16 06:28:53;;;;;;;9.90;5.90;;;;;;;31.69;42.09;94507.13;5096657;28;20461;-85
2021/07/16 06:31:20;;;;;;;12.20;5.20;;;;;;;31.79;41.21;94507.16;5096509;28;20470;-85
2021/07/16 06:33:47;;;;;;;10.33;4.60;;;;;;;31.82;39.84;94505.81;5096750;28;20496;-86
2021/07/16 06:36:15;;;;;;;5.47;4.60;;;;;;;31.92;40.64;94490.31;5044400;28;20444;-84
2021/07/16 06:38:43;;;;;;;15.43;6.30;;;;;;;32.09;39.04;94487.31;5096115;28;20447;-86
2021/07/16 06:47:53;;;;;;;10.40;6.00;;;;;;;32.94;37.37;94482.75;5094818;28;20473;-85
2021/07/16 06:50:20;;;;;;;11.27;5.47;;;;;;;33.12;36.57;94481.31;5092086;28;20543;-85
2021/07/16 06:52:49;;;;;;;11.53;5.30;;;;;;;32.52;37.37;94472.31;5079112;28;20441;-84
2021/07/16 06:55:17;;;;;;;9.13;5.10;;;;;;;32.65;39.12;94479.84;5087646;28;20461;-85
2021/07/16 06:57:44;;;;;;;9.03;6.43;;;;;;;32.75;38.09;94475.47;5093879;28;20815;-86
2021/07/16 07:00:12;;;;;;;9.97;5.93;;;;;;;32.84;37.60;94471.13;5098120;28;20569;-86
2021/07/16 07:02:39;;;;;;;13.73;5.93;;;;;;;33.12;37.11;94475.88;5045957;28;20444;-85
2021/07/16 07:05:07;;;;;;;7.80;6.07;;;;;;;33.34;37.46;94477.41;5096113;28;20452;-86
2021/07/16 07:07:34;;;;;;;5.90;5.40;;;;;;;33.30;38.07;94473.59;5047923;28;20479;-87
2021/07/16 07:10:03;;;;;;;8.33;5.40;;;;;;;32.37;39.53;94469.63;5098942;28;20582;-88
2021/07/16 07:12:30;;;;;;;11.50;6.87;;;;;;;32.48;39.81;94468.53;5099132;28;20511;-86
2021/07/16 07:14:57;;;;;;;6.10;5.60;;;;;;;32.60;40.75;94470.91;5097412;28;20478;-86
2021/07/16 07:17:24;;;;;;;9.03;5.70;;;;;;;32.80;40.27;94467.34;5045423;28;20857;-85
2021/07/16 07:19:53;;;;;;;11.53;5.50;;;;;;;32.76;39.13;94464.34;5096855;28;20899;-88
2021/07/16 07:22:20;;;;;;;8.67;6.17;;;;;;;32.39;41.21;94462.03;5079094;28;20451;-86
2021/07/16 07:24:47;;;;;;;6.77;6.17;;;;;;;32.37;39.98;94456.03;5045661;28;20553;-85
2021/07/16 07:27:16;;;;;;;5.90;5.40;;;;;;;32.64;40.50;94453.78;5096012;28;20432;-86
2021/07/16 07:33:05;;;;;;;6.17;5.57;;;;;;;32.86;39.49;94450.72;5094205;28;20478;-85
2021/07/16 07:35:32;;;;;;;9.30;5.53;;;;;;;32.98;39.22;94453.13;5095605;28;20435;-86
2021/07/16 07:38:00;;;;;;;6.73;6.03;;;;;;;33.14;39.45;94441.03;5095453;28;20543;-86
2021/07/16 07:40:27;;;;;;;9.60;6.40;;;;;;;33.37;39.07;94450.44;5097984;28;20456;-87
2021/07/16 07:43:00;;;;;;;10.30;6.03;;;;;;;33.42;39.81;94446.88;5099189;28;20527;-86
2021/07/16 07:45:47;;;;;;;14.87;6.30;;;;;;;33.49;37.83;94450.06;4980694;28;20434;-87
2021/07/16 07:48:14;;;;;;;9.53;6.57;;;;;;;33.46;37.21;94453.38;4976628;28;20550;-86
2021/07/16 07:50:42;;;;;;;9.63;6.33;;;;;;;33.66;39.07;94452.41;4975558;28;20492;-85
2021/07/16 07:53:09;;;;;;;11.60;7.17;;;;;;;33.84;38.43;94444.38;4974512;28;20438;-86
2021/07/16 07:55:36;;;;;;;6.00;5.60;;;;;;;33.71;37.60;94441.47;4975688;28;20945;-85
2021/07/16 07:58:04;;;;;;;10.23;6.13;;;;;;;33.47;37.06;94444.91;4967048;28;20438;-86
2021/07/16 08:03:52;;;;;;;13.50;6.33;;;;;;;33.85;38.07;94428.88;4989254;28;20483;-88
2021/07/16 08:06:19;;;;;;;6.87;6.23;;;;;;;33.10;38.65;94442.69;5023853;28;20537;-86
2021/07/16 08:08:46;;;;;;;8.80;6.50;;;;;;;33.37;39.10;94436.84;5029087;28;20481;-86
2021/07/16 08:11:13;;;;;;;11.00;7.00;;;;;;;33.61;38.16;94426.03;5030145;28;20822;-85
2021/07/16 08:13:43;;;;;;;12.70;11.60;;;;;;;33.81;37.07;94423.13;5032887;28;20577;-86
2021/07/16 08:16:10;;;;;;;20.87;18.90;;;;;;;33.94;36.37;94424.41;5054075;28;20939;-86
2021/07/16 08:18:38;;;;;;;16.07;11.33;;;;;;;33.96;36.15;94422.22;5094975;28;21012;-87
2021/07/16 08:21:05;;;;;;;9.10;6.63;;;;;;;34.13;36.16;94424.50;5095037;28;20476;-88
2021/07/16 08:23:32;;;;;;;15.90;6.73;;;;;;;34.23;35.79;94426.28;5075756;28;21020;-87
2021/07/16 08:25:59;;;;;;;9.97;6.53;;;;;;;34.29;35.11;94425.94;5059096;28;20436;-85
2021/07/16 08:28:26;;;;;;;7.20;6.50;;;;;;;34.29;35.30;94422.41;5095677;28;20508;-86
2021/07/16 08:30:54;;;;;;;8.70;7.63;;;;;;;34.34;35.38;94427.81;5095654;28;20472;-85
2021/07/16 08:33:21;;;;;;;13.63;7.10;;;;;;;34.54;34.94;94429.50;5094968;28;20456;-86
2021/07/16 08:35:48;;;;;;;7.13;6.50;;;;;;;34.67;35.16;94420.59;5076013;28;20519;-86
2021/07/16 08:38:15;;;;;;;13.93;7.03;;;;;;;34.75;35.31;94425.44;5094313;28;20518;-87
2021/07/16 08:40:44;;;;;;;15.13;6.93;;;;;;;34.85;34.62;94424.50;5094124;28;20440;-87
2021/07/16 08:43:16;;;;;;;8.50;7.60;;;;;;;34.97;34.20;94422.97;5058736;28;20509;-86
